メインページ
METAR-TAF:

METAR-TAF

空港 :

ウンベルト・デルガード空港

リスボン, ポルトガル

緯度: 38-46N, 経度: 009-08W, 海抜: 114m

現時点の気象観測

当レポートは39分前の11:00(UTC)に作成
東/北東の風 9kt、からの間で変化する
気温 29°C
湿度 37%
気圧 1021 hPa
視程10km以上
1,500メートル以下は雲なし、積乱雲なし

METAR: LPPT 241100Z 06009KT 010V100 CAVOK 29/13 Q1021

時間: 12:39 (11:39 UTC)

予報

当レポートは6時間39分前の05:00(UTC)に作成
予報は24日の 06時(UTC)から 25日の 12時(UTC)まで有効
東/北東の風 5kt
視程10km以上
1,500メートル以下は雲なし、積乱雲なし
24日の 15時(UTC)から 24日の 17時(UTC)まで徐々に
北/北西の風 12kt
25日の 00時(UTC)から 25日の 03時(UTC)まで徐々に
の風 5kt
25日の 09時(UTC)から 25日の 12時(UTC)まで徐々に
南西の風 10kt

TAF: LPPT 240500Z 2406/2512 06005KT CAVOK BECMG 2415/2417 34012KT BECMG 2500/2503 09005KT BECMG 2509/2512 23010KT

4,000以上の空港の気象観測と天気予報(METAR報とTAF報)

利用可能な観測所は地図上に黄色い丸と赤い丸で示す。

丸の上にカーソルを重ねると観測所名を参照できる。

次にクリックすると気象観測と天気予報を参照できる。

マップの切り替え:黒色「×」印の緑ボタンをクリックして拡大、「-」印の緑ボタンをクリックして縮小、緑色の三角印をクリックして隣りの地図に切り替え


METAR-TAF: